• Join FlightAware (Why Join?)
  • Login
  • US Flag 
12:30PM EST


 

Airport Tracker/Info


-or-


 

Live Flight TrackerFlight Track Log ✈ TCF3559 ✈ 23-Apr-2013 ✈ KCMH - KIAH

Flight Track Log - Related Links

Times and Time Zones

All times are in EDT time to prevent confusion due to time zone crossing. See the TCF3559 flight status page for this flight to view local times or setup timezone preferences in your user account.

Time Position Orientation Groundspeed Altitude Reporting Facility
EDT Latitude Longitude Course Direction KTS MPH feet Rate Location/Type
05:09PM 40.0028 -82.9733 280° West 167 192 3,200  Level Indianapolis Center
05:10PM 40.0106 -83.0592 277° West 217 250 4,900 2,460 Climbing Indianapolis Center
05:11PM 40.0197 -83.1522 277° West 254 292 8,300 3,000 Climbing Indianapolis Center
05:12PM 40.0000 -83.5528 270° West  Level FlightAware Approximate
05:12PM 40.0142 -83.2450 266° West 261 300 11,200  Level Indianapolis Center
05:13PM 40.0000 -83.6872 270° West  Level FlightAware Approximate
05:13PM 39.9922 -83.3639 256° West 286 329 13,900  Level Indianapolis Center
05:14PM 39.9603 -83.4614 247° West 295 339 16,400 2,160 Climbing Indianapolis Center
05:15PM 39.9172 -83.5567 240° Southwest 308 354 18,400 1,920 Climbing Indianapolis Center
05:16PM 39.8728 -83.6569 240° Southwest 323 372 20,400 1,740 Climbing Indianapolis Center
05:17PM 39.8178 -83.7806 240° Southwest 336 387 22,000 720 Climbing Indianapolis Center
05:18PM 39.7686 -83.8914 240° Southwest 349 402 22,000 480 Level Indianapolis Center
05:19PM 39.7197 -83.9989 239° Southwest 346 398 23,000 1,320 Climbing Indianapolis Center
05:20PM 39.6717 -84.1083 240° Southwest 345 397 24,800 1,680 Climbing Indianapolis Center
05:21PM 39.6206 -84.2183 239° Southwest 352 405 26,500 1,500 Climbing Indianapolis Center
05:22PM 39.5717 -84.3306 241° Southwest 355 409 27,900 1,320 Climbing Indianapolis Center
05:23PM 39.5181 -84.4444 239° Southwest 366 421 29,300 1,140 Climbing Indianapolis Center
05:24PM 39.4658 -84.5594 240° Southwest 369 425 30,300 1,080 Climbing Indianapolis Center
05:25PM 39.4053 -84.6950 240° Southwest 372 428 31,600 1,260 Climbing Indianapolis Center
05:26PM 39.3503 -84.8094 238° Southwest 371 427 33,000 1,140 Climbing Indianapolis Center
05:27PM 39.3014 -84.9169 240° Southwest 361 415 34,000 480 Climbing Indianapolis Center
05:28PM 39.2503 -85.0286 239° Southwest 359 413 34,000  Level Indianapolis Center
05:29PM 39.1981 -85.1406 239° Southwest 361 415 34,000  Level Indianapolis Center
05:30PM 39.1372 -85.2717 239° Southwest 362 417 34,000  Level Indianapolis Center
05:31PM 39.0850 -85.3833 239° Southwest 361 415 34,000  Level Indianapolis Center
05:32PM 39.0319 -85.4975 239° Southwest 366 421 34,000  Level Indianapolis Center
05:33PM 38.9775 -85.6114 238° Southwest 371 427 34,000  Level Indianapolis Center
05:35PM 38.9244 -85.7222 238° Southwest 365 420 34,000  Level Indianapolis Center
05:36PM 38.8714 -85.8350 239° Southwest 365 420 34,000  Level Indianapolis Center
05:37PM 38.8106 -85.9622 238° Southwest 366 421 34,000  Level Indianapolis Center
05:38PM 38.7564 -86.0761 239° Southwest 372 428 34,000  Level Indianapolis Center
05:39PM 38.7033 -86.1886 239° Southwest 368 423 34,000  Level Indianapolis Center
05:40PM 38.6500 -86.3011 239° Southwest 368 423 34,000  Level Indianapolis Center
05:41PM 38.5947 -86.4125 238° Southwest 367 422 34,000  Level Indianapolis Center
05:42PM 38.5283 -86.5142 230° Southwest 372 428 34,000  Level Indianapolis Center
05:43PM 38.4569 -86.6111 227° Southwest 373 429 34,000  Level Indianapolis Center
05:44PM 38.3878 -86.7092 228° Southwest 370 426 34,000  Level Indianapolis Center
05:45PM 38.3025 -86.8275 227° Southwest 372 428 34,000  Level Indianapolis Center
05:46PM 38.2308 -86.9292 228° Southwest 376 433 34,000  Level Indianapolis Center
05:47PM 38.1589 -87.0292 228° Southwest 374 430 34,000  Level Indianapolis Center
05:48PM 38.0881 -87.1286 228° Southwest 373 429 34,000  Level Indianapolis Center
05:49PM 38.0175 -87.2269 228° Southwest 374 430 34,000  Level Indianapolis Center
05:50PM 37.9464 -87.3256 228° Southwest 375 432 34,000  Level Indianapolis Center
05:51PM 37.8761 -87.4222 227° Southwest 372 428 34,000  Level Indianapolis Center
05:52PM 37.8058 -87.5206 228° Southwest 373 429 34,000  Level Indianapolis Center
05:53PM 37.7306 -87.6228 227° Southwest 368 423 34,000  Level Indianapolis Center
05:54PM 37.6597 -87.7192 227° Southwest 371 427 34,000  Level Indianapolis Center
05:55PM 37.6017 -87.8156 233° Southwest 369 425 34,000  Level Memphis Center
05:56PM 37.5286 -87.9094 226° Southwest 374 430 34,000  Level Memphis Center
05:57PM 37.4575 -88.0031 226° Southwest 374 430 34,000  Level Memphis Center
05:58PM 37.3714 -88.0839 217° Southwest 380 437 34,000  Level Memphis Center
05:59PM 37.2894 -88.1644 218° Southwest 380 437 34,000  Level Memphis Center
06:00PM 37.2056 -88.2447 217° Southwest 385 443 34,000  Level Memphis Center
06:01PM 37.1214 -88.3250 217° Southwest 390 449 34,000  Level Memphis Center
06:02PM 37.0394 -88.4025 217° Southwest 385 443 34,000  Level Memphis Center
06:03PM 36.9553 -88.4825 217° Southwest 385 443 34,000  Level Memphis Center
06:04PM 36.8750 -88.5622 218° Southwest 385 443 34,000  Level Memphis Center
06:05PM 36.7908 -88.6419 217° Southwest 385 443 34,000  Level Memphis Center
06:06PM 36.7064 -88.7186 216° Southwest 385 443 34,000  Level Memphis Center
06:07PM 36.6239 -88.7953 217° Southwest 385 443 34,000  Level Memphis Center
06:08PM 36.5417 -88.8744 218° Southwest 385 443 34,000  Level Memphis Center
06:09PM 36.4550 -88.9508 215° Southwest 385 443 34,000  Level Memphis Center
06:10PM 36.3703 -89.0297 217° Southwest 385 443 34,000  Level Memphis Center
06:11PM 36.2753 -89.1161 216° Southwest 385 443 34,000  Level Memphis Center
06:12PM 36.1886 -89.1997 218° Southwest 390 449 34,000  Level Memphis Center
06:13PM 36.1039 -89.2806 218° Southwest 390 449 34,000  Level Memphis Center
06:14PM 36.0211 -89.3586 217° Southwest 390 449 34,000  Level Memphis Center
06:15PM 35.9361 -89.4367 217° Southwest 390 449 34,000  Level Memphis Center
06:16PM 35.8514 -89.5169 218° Southwest 390 449 34,000  Level Memphis Center
06:17PM 35.7683 -89.5947 217° Southwest 390 449 34,000  Level Memphis Center
06:18PM 35.6811 -89.6719 216° Southwest 390 449 34,000  Level Memphis Center
06:19PM 35.6003 -89.7494 218° Southwest 390 449 34,000  Level Memphis Center
06:20PM 35.5153 -89.8239 215° Southwest 385 443 34,000  Level Memphis Center
06:21PM 35.4300 -89.9036 217° Southwest 390 449 34,000  Level Memphis Center
06:22PM 35.3425 -89.9803 216° Southwest 390 449 34,000  Level Memphis Center
06:23PM 35.2594 -90.0594 218° Southwest 390 449 34,000  Level Memphis Center
06:24PM 35.1719 -90.1361 216° Southwest 390 449 34,000  Level Memphis Center
06:25PM 35.0886 -90.2125 217° Southwest 390 449 34,000  Level Memphis Center
06:26PM 35.0053 -90.2861 216° Southwest 384 442 34,000  Level Memphis Center
06:27PM 34.9178 -90.3622 216° Southwest 384 442 34,000  Level Memphis Center
06:28PM 34.8342 -90.4456 219° Southwest 384 442 34,000  Level Memphis Center
06:29PM 34.7464 -90.5264 217° Southwest 389 448 34,000  Level Memphis Center
06:30PM 34.6628 -90.5969 215° Southwest 387 445 34,000  Level Memphis Center
06:31PM 34.5772 -90.6750 217° Southwest 387 445 34,000  Level Memphis Center
06:32PM 34.5206 -90.7656 233° Southwest 382 440 34,000  Level Memphis Center
06:33PM 34.4597 -90.8683 234° Southwest 380 437 34,000  Level Memphis Center
06:34PM 34.3967 -90.9714 233° Southwest 381 438 34,000  Level Memphis Center
06:35PM 34.3356 -91.0714 234° Southwest 389 448 34,000  Level Memphis Center
06:36PM 34.2722 -91.1817 235° Southwest 377 434 34,000  Level Memphis Center
06:37PM 34.2111 -91.2839 234° Southwest 377 434 34,000  Level Memphis Center
06:38PM 34.1478 -91.3861 233° Southwest 382 440 34,000  Level Memphis Center
06:39PM 34.0883 -91.4833 234° Southwest 375 432 34,000  Level Memphis Center
06:40PM 34.0311 -91.5753 233° Southwest 380 437 34,000  Level Memphis Center
06:41PM 33.9656 -91.6769 232° Southwest 385 443 34,000  Level Memphis Center
06:42PM 33.9142 -91.7764 238° Southwest 372 428 34,000  Level Memphis Center
06:44PM 33.7983 -91.9625 233° Southwest 354 407 34,000  Level Fort Worth Center
06:45PM 33.7397 -92.0586 234° Southwest 354 407 34,000  Level Fort Worth Center
06:46PM 33.6728 -92.1525 229° Southwest 354 407 34,000  Level Fort Worth Center
06:47PM 33.5767 -92.1956 200° South 359 413 34,000  Level Fort Worth Center
06:48PM 33.4694 -92.2267 194° South 375 432 34,000  Level Fort Worth Center
06:49PM 33.3642 -92.2578 194° South 380 437 34,000  Level Fort Worth Center
06:50PM 33.2592 -92.2914 195° South 392 451 34,000 -240 Level Fort Worth Center
06:51PM 33.1519 -92.3247 195° South 397 457 33,600 -840 Descending Fort Worth Center
06:52PM 33.0447 -92.3556 194° South 397 457 32,400 -840 Descending Fort Worth Center
06:53PM 32.9356 -92.3892 194° South 397 457 32,000 -240 Descending Fort Worth Center
06:54PM 32.8219 -92.4225 194° South 409 471 32,000  Level Fort Worth Center
06:55PM 32.7044 -92.4539 193° South 409 471 32,000  Level Fort Worth Center
06:56PM 32.5950 -92.4869 194° South 409 471 32,000  Level Fort Worth Center
06:58PM 32.4256 -92.5428 196° South 405 466 32,000  Level Houston Center
06:59PM 32.3147 -92.5739 193° South 411 473 32,000  Level Houston Center
07:00PM 32.1839 -92.6144 195° South 408 470 32,000  Level Houston Center
07:01PM 32.0753 -92.6469 194° South 405 466 32,000  Level Houston Center
07:02PM 31.9667 -92.6817 195° South 405 466 32,000  Level Houston Center
07:03PM 31.8847 -92.7606 219° Southwest 381 438 32,000  Level Houston Center
07:04PM 31.8044 -92.8403 220° Southwest 379 436 32,000  Level Houston Center
07:05PM 31.7228 -92.9186 219° Southwest 379 436 32,000  Level Houston Center
07:06PM 31.6247 -93.0136 220° Southwest 383 441 32,000  Level Houston Center
07:07PM 31.5406 -93.0944 219° Southwest 390 449 32,000  Level Houston Center
07:08PM 31.4536 -93.1783 219° Southwest 403 464 32,000  Level Houston Center
07:09PM 31.3653 -93.2617 219° Southwest 407 468 32,000  Level Houston Center
07:10PM 31.2789 -93.3458 220° Southwest 401 461 32,000  Level Houston Center
07:11PM 31.1775 -93.4419 219° Southwest 399 459 32,000 -480 Level Houston Center
07:12PM 31.0908 -93.5233 219° Southwest 399 459 31,100 -960 Descending Houston Center
07:13PM 31.0036 -93.6078 220° Southwest 407 468 30,100 -1,260 Descending Houston Center
07:14PM 30.9131 -93.6928 219° Southwest 418 481 28,600 -1,800 Descending Houston Center
07:15PM 30.8203 -93.7794 219° Southwest 427 491 26,400 -2,280 Descending Houston Center
07:16PM 30.7114 -93.8828 219° Southwest 424 488 23,900 -2,220 Descending Houston Center
07:17PM 30.6244 -93.9661 220° Southwest 413 475 21,800 -1,980 Descending Houston Center
07:18PM 30.5375 -94.0467 219° Southwest 405 466 19,800 -2,040 Descending Houston Center
07:19PM 30.4522 -94.1258 219° Southwest 399 459 17,700 -2,100 Descending Houston Center
07:21PM 30.3444 -94.2267 219° Southwest 388 447 15,300 -2,040 Descending Houston Center
07:21PM 30.2750 -94.2914 219° Southwest 373 429 13,600 -1,740 Descending Houston Center
07:22PM 30.2047 -94.3661 223° Southwest 313 360 12,000 -1,440 Descending Houston Center
07:24PM 30.1811 -94.4625 254° West 321 369 10,700 -1,020 Descending Houston Center
07:25PM 30.1636 -94.5672 259° West 316 364 10,000 -360 Descending Houston Center
07:26PM 30.1461 -94.6686 259° West 318 366 10,000  Level Houston Center
07:27PM 30.1286 -94.7700 259° West 320 368 10,000 -480 Level Houston Center
07:28PM 30.1119 -94.8617 258° West 273 314 9,100 -1,380 Descending Houston Center
07:29PM 30.1044 -94.9592 265° West 277 319 7,100 -1,500 Descending Houston Center
07:30PM 30.1047 -95.0508 270° West 276 318 6,000 -540 Descending Houston Center
07:31PM 30.1061 -95.1433 271° West 272 313 6,000  Level Houston Center
07:32PM 30.1064 -95.2269 270° West 273 314 6,000  Level Houston Center
07:33PM 30.1056 -95.3092 269° West 273 314 6,000 -240 Level Houston Center
07:34PM 30.1069 -95.3936 271° West 267 307 5,600 -1,200 Descending Houston Center
07:35PM 30.1053 -95.4903 269° West 264 304 3,500 -1,320 Descending Houston Center
07:36PM 30.0931 -95.5642 259° West 271 312 3,000 -240 Descending Houston Center
07:37PM 30.0281 -95.5247 152° Southeast 260 299 3,000  Level Houston Center